Time;durP1;ratioP1;P1;durP2;ratioP2;P2;SDS_P1;SDS_P2;PMS_P1;PMS_P2;Temp;Humidity;BMP_temperature;BMP_pressure;BME280_temperature;BME280_humidity;BME280_pressure;Samples;Min_cycle;Max_cycle;Signal;HPM_P1;HPM_P2
2023/12/31 00:01:51;;;;;;;1.63;1.27;;;3.70;99.90;;;;;;4940973;29;20209;-62
2023/12/31 00:04:17;;;;;;;0.77;0.77;;;3.60;99.90;;;;;;4940704;29;20178;-62
2023/12/31 00:06:42;;;;;;;0.63;0.60;;;3.50;99.90;;;;;;4940568;29;20245;-61
2023/12/31 00:09:08;;;;;;;1.90;0.97;;;3.50;99.90;;;;;;4940688;29;20648;-62
2023/12/31 00:11:34;;;;;;;1.50;1.50;;;3.40;99.90;;;;;;4940346;29;20185;-62
2023/12/31 00:14:00;;;;;;;2.07;1.57;;;3.50;99.90;;;;;;4940710;29;20201;-62
2023/12/31 00:16:25;;;;;;;1.17;1.07;;;3.50;99.90;;;;;;4940503;29;20201;-62
2023/12/31 00:18:52;;;;;;;0.60;0.60;;;3.50;99.90;;;;;;4940540;29;20428;-62
2023/12/31 00:21:18;;;;;;;1.58;1.48;;;3.40;99.90;;;;;;4940308;29;20178;-61
2023/12/31 00:23:43;;;;;;;0.50;0.50;;;3.40;99.90;;;;;;4940600;29;20671;-62
2023/12/31 00:26:09;;;;;;;1.60;1.50;;;3.50;99.90;;;;;;4940501;29;20294;-62
2023/12/31 00:28:34;;;;;;;1.93;1.83;;;3.50;99.90;;;;;;4940645;29;20610;-62
2023/12/31 00:31:00;;;;;;;1.00;0.70;;;3.60;99.90;;;;;;4940283;29;20266;-62
2023/12/31 00:33:26;;;;;;;0.50;0.50;;;3.50;99.90;;;;;;4940397;29;20213;-62
2023/12/31 00:35:51;;;;;;;0.30;0.30;;;3.40;99.90;;;;;;4940427;29;20202;-62
2023/12/31 00:38:17;;;;;;;1.23;1.23;;;3.40;99.90;;;;;;4940496;29;20182;-62
2023/12/31 00:40:42;;;;;;;2.50;2.27;;;3.50;99.90;;;;;;4940156;29;20237;-62
2023/12/31 00:43:08;;;;;;;2.30;1.40;;;3.60;99.90;;;;;;4940417;29;20712;-62
2023/12/31 00:45:33;;;;;;;0.50;0.50;;;3.60;99.90;;;;;;4940250;29;20241;-61
2023/12/31 00:47:59;;;;;;;0.70;0.70;;;3.60;99.90;;;;;;4940259;29;20644;-62
2023/12/31 00:50:25;;;;;;;0.90;0.90;;;3.60;99.90;;;;;;4940071;29;20300;-62
2023/12/31 00:52:50;;;;;;;0.50;0.50;;;3.70;99.90;;;;;;4940599;29;20181;-62
2023/12/31 00:55:16;;;;;;;1.43;1.00;;;3.80;99.90;;;;;;4940206;29;20604;-62
2023/12/31 00:57:41;;;;;;;0.77;0.77;;;3.80;99.90;;;;;;4940145;29;20201;-61
2023/12/31 01:00:08;;;;;;;0.80;0.80;;;3.70;99.90;;;;;;4940127;29;20171;-60
2023/12/31 01:02:33;;;;;;;2.80;2.60;;;3.80;99.90;;;;;;4936442;29;20186;-61
2023/12/31 01:04:59;;;;;;;0.80;0.80;;;3.80;99.90;;;;;;4937279;29;20185;-62
2023/12/31 01:07:25;;;;;;;1.33;0.90;;;3.80;99.90;;;;;;4937243;29;20620;-62
2023/12/31 01:09:50;;;;;;;3.07;1.80;;;3.80;99.90;;;;;;4937096;29;20801;-62
2023/12/31 01:12:16;;;;;;;0.70;0.70;;;3.70;99.90;;;;;;4936952;29;20170;-62
2023/12/31 01:14:42;;;;;;;1.50;1.50;;;3.50;99.90;;;;;;4937063;29;20171;-62
2023/12/31 01:17:10;;;;;;;1.27;1.10;;;3.50;99.90;;;;;;4936837;29;20437;-61
2023/12/31 01:19:36;;;;;;;1.92;1.83;;;3.60;99.90;;;;;;4936835;29;20427;-62
2023/12/31 01:22:02;;;;;;;3.90;2.87;;;3.70;99.90;;;;;;4937120;29;20630;-61
2023/12/31 01:24:28;;;;;;;4.43;1.17;;;3.60;99.90;;;;;;4936944;29;20179;-61
2023/12/31 01:26:53;;;;;;;1.07;1.07;;;3.70;99.90;;;;;;4936721;29;20245;-62
2023/12/31 01:29:19;;;;;;;1.10;1.00;;;3.70;99.90;;;;;;4936817;29;20171;-62
2023/12/31 01:31:45;;;;;;;2.17;2.07;;;3.80;99.90;;;;;;4936387;29;20244;-62
2023/12/31 01:34:10;;;;;;;1.47;1.30;;;3.80;99.90;;;;;;4936764;29;20162;-62
2023/12/31 01:36:36;;;;;;;0.67;0.67;;;3.90;99.90;;;;;;4936665;29;20253;-62
2023/12/31 01:39:01;;;;;;;1.70;1.27;;;3.90;99.90;;;;;;4936654;29;20174;-61
2023/12/31 01:41:28;;;;;;;0.60;0.60;;;3.90;99.90;;;;;;4936386;29;20171;-62
2023/12/31 01:44:05;;;;;;;1.58;1.27;;;3.90;99.90;;;;;;4936629;29;20265;-62
2023/12/31 01:46:32;;;;;;;2.45;1.15;;;3.90;99.90;;;;;;4936535;29;20216;-62
2023/12/31 01:48:59;;;;;;;0.40;0.40;;;3.80;99.90;;;;;;4936478;29;20656;-62
2023/12/31 01:51:26;;;;;;;1.75;0.98;;;3.80;99.90;;;;;;4936226;29;20676;-62
2023/12/31 01:53:53;;;;;;;0.68;0.68;;;3.90;99.90;;;;;;4936422;29;20171;-62
2023/12/31 01:56:20;;;;;;;3.60;1.60;;;3.90;99.90;;;;;;4936368;29;20617;-62
2023/12/31 01:58:48;;;;;;;0.40;0.40;;;4.00;99.90;;;;;;4936142;29;20198;-61
2023/12/31 02:01:14;;;;;;;1.75;0.70;;;3.90;99.90;;;;;;4936012;29;20174;-61
2023/12/31 02:03:39;;;;;;;0.98;0.98;;;4.00;99.90;;;;;;4936217;29;20680;-62
2023/12/31 02:06:06;;;;;;;0.30;0.30;;;3.90;99.90;;;;;;4936001;29;20210;-62
2023/12/31 02:08:31;;;;;;;0.70;0.70;;;3.80;99.90;;;;;;4936206;29;20406;-62
2023/12/31 02:10:57;;;;;;;0.97;0.93;;;3.90;99.90;;;;;;4935896;29;20680;-61
2023/12/31 02:13:23;;;;;;;4.33;1.03;;;3.90;99.90;;;;;;4935738;29;20241;-62
2023/12/31 02:15:52;;;;;;;1.30;1.30;;;4.00;99.90;;;;;;4935994;29;20202;-62
2023/12/31 02:18:17;;;;;;;0.95;0.90;;;3.90;99.90;;;;;;4935935;29;20195;-62
2023/12/31 02:20:44;;;;;;;1.90;0.93;;;3.90;99.90;;;;;;4935620;29;20190;-62
2023/12/31 02:23:10;;;;;;;0.93;0.93;;;3.80;99.90;;;;;;4935764;29;20936;-62
2023/12/31 02:25:38;;;;;;;1.13;1.10;;;3.90;99.90;;;;;;4935687;29;20216;-62
2023/12/31 02:28:08;;;;;;;0.70;0.70;;;3.90;99.90;;;;;;4935616;29;20414;-61
2023/12/31 02:30:33;;;;;;;1.63;1.52;;;3.90;99.90;;;;;;4935349;29;20179;-62
2023/12/31 02:32:59;;;;;;;3.90;1.87;;;3.80;99.90;;;;;;4935752;29;20170;-61
2023/12/31 02:35:25;;;;;;;0.70;0.70;;;3.90;99.90;;;;;;4935480;29;20186;-62
2023/12/31 02:37:50;;;;;;;1.37;1.27;;;3.90;99.90;;;;;;4935487;29;20190;-60
2023/12/31 02:40:16;;;;;;;1.27;1.27;;;3.90;99.90;;;;;;4935197;29;20238;-62
2023/12/31 02:42:42;;;;;;;0.60;0.60;;;3.80;99.90;;;;;;4935401;29;20240;-62
2023/12/31 02:45:08;;;;;;;2.57;0.87;;;3.80;99.90;;;;;;4935462;29;20711;-61
2023/12/31 02:47:33;;;;;;;1.00;1.00;;;3.90;99.90;;;;;;4935299;29;20699;-62
2023/12/31 02:49:59;;;;;;;0.50;0.50;;;4.00;99.90;;;;;;4935203;29;20782;-62
2023/12/31 02:52:24;;;;;;;1.07;1.07;;;4.00;99.90;;;;;;4935187;29;20171;-62
2023/12/31 02:54:50;;;;;;;1.00;0.97;;;4.10;99.90;;;;;;4935341;29;20448;-61
2023/12/31 02:57:15;;;;;;;0.90;0.83;;;4.10;99.90;;;;;;4935494;29;20627;-61
2023/12/31 02:59:41;;;;;;;2.23;2.13;;;4.10;99.90;;;;;;4935049;29;20221;-61
2023/12/31 03:02:07;;;;;;;0.40;0.40;;;4.10;99.90;;;;;;4935044;29;20183;-60
2023/12/31 03:04:32;;;;;;;1.13;1.13;;;4.00;99.90;;;;;;4935254;29;20181;-62
2023/12/31 03:06:58;;;;;;;2.07;1.97;;;3.90;99.90;;;;;;4934953;29;20202;-61
2023/12/31 03:09:24;;;;;;;0.40;0.40;;;3.90;99.90;;;;;;4935031;29;20257;-61
2023/12/31 03:11:51;;;;;;;0.90;0.90;;;3.80;99.90;;;;;;4935205;29;20196;-62
2023/12/31 03:14:17;;;;;;;1.25;1.15;;;3.70;99.90;;;;;;4934911;29;20233;-61
2023/12/31 03:16:46;;;;;;;0.80;0.80;;;3.70;99.90;;;;;;4934904;29;20198;-62
2023/12/31 03:19:13;;;;;;;1.25;1.20;;;3.70;99.90;;;;;;4933712;29;20205;-62
2023/12/31 03:21:39;;;;;;;1.35;1.08;;;3.70;99.90;;;;;;4934632;29;20174;-62
2023/12/31 03:24:05;;;;;;;0.30;0.30;;;3.80;99.90;;;;;;4934458;29;20174;-62
2023/12/31 03:26:30;;;;;;;0.60;0.60;;;3.80;99.90;;;;;;4934936;29;20297;-61
2023/12/31 03:28:56;;;;;;;2.87;0.80;;;3.90;99.90;;;;;;4934706;29;20421;-61
2023/12/31 03:31:21;;;;;;;0.73;0.73;;;3.90;99.90;;;;;;4934524;29;20174;-62
2023/12/31 03:33:47;;;;;;;0.70;0.63;;;4.00;99.90;;;;;;4934665;29;20679;-61
2023/12/31 03:36:13;;;;;;;2.63;2.43;;;3.80;99.90;;;;;;4934640;29;20198;-61
2023/12/31 03:38:38;;;;;;;1.93;1.87;;;3.70;99.90;;;;;;4934649;29;20181;-62
2023/12/31 03:41:04;;;;;;;1.33;1.10;;;3.70;99.90;;;;;;4934325;29;20177;-61
2023/12/31 03:43:30;;;;;;;1.35;0.70;;;3.70;99.90;;;;;;4934522;29;20527;-62
2023/12/31 03:45:57;;;;;;;2.53;1.80;;;3.80;99.90;;;;;;4934432;29;20214;-62
2023/12/31 03:48:23;;;;;;;5.68;1.58;;;3.80;99.90;;;;;;4934450;29;20947;-62
2023/12/31 03:50:49;;;;;;;2.13;1.88;;;3.80;99.90;;;;;;4934273;29;20261;-62
2023/12/31 03:53:14;;;;;;;2.00;1.90;;;3.90;99.90;;;;;;4934622;29;20835;-62
2023/12/31 03:55:42;;;;;;;1.53;1.43;;;3.80;99.90;;;;;;4934497;29;20273;-63
2023/12/31 03:58:07;;;;;;;3.70;1.65;;;3.80;99.90;;;;;;4934389;29;20572;-62
2023/12/31 04:00:34;;;;;;;4.50;2.70;;;3.80;99.90;;;;;;4934238;29;20277;-63
2023/12/31 04:03:00;;;;;;;0.60;0.60;;;3.80;99.90;;;;;;4934381;29;20791;-62
2023/12/31 04:05:25;;;;;;;2.40;1.23;;;3.70;99.90;;;;;;4934489;29;20216;-62
2023/12/31 04:07:51;;;;;;;2.33;1.97;;;3.70;99.90;;;;;;4934619;29;20420;-62
2023/12/31 04:10:16;;;;;;;1.90;1.70;;;3.70;99.90;;;;;;4934049;29;20174;-63
2023/12/31 04:12:42;;;;;;;1.10;1.00;;;3.70;99.90;;;;;;4934362;29;20537;-62
2023/12/31 04:15:08;;;;;;;2.43;1.43;;;3.70;99.90;;;;;;4934393;29;20230;-62
2023/12/31 04:17:36;;;;;;;1.83;1.03;;;3.70;99.90;;;;;;4934127;29;20202;-63
2023/12/31 04:20:02;;;;;;;0.57;0.57;;;3.80;99.90;;;;;;4934195;29;20178;-63
2023/12/31 04:22:28;;;;;;;1.23;0.95;;;3.80;99.90;;;;;;4934245;29;20216;-63
2023/12/31 04:24:54;;;;;;;1.67;1.20;;;3.90;99.90;;;;;;4934428;29;20209;-62
2023/12/31 04:27:20;;;;;;;0.80;0.80;;;3.80;99.90;;;;;;4934098;29;20298;-63
2023/12/31 04:29:46;;;;;;;1.02;1.00;;;3.70;99.90;;;;;;4934098;29;20210;-63
2023/12/31 04:32:11;;;;;;;0.68;0.68;;;3.60;99.90;;;;;;4933928;29;20193;-62
2023/12/31 04:34:37;;;;;;;1.83;1.73;;;3.60;99.90;;;;;;4934161;29;20175;-62
2023/12/31 04:37:03;;;;;;;0.77;0.60;;;3.60;99.90;;;;;;4935470;29;20190;-63
2023/12/31 04:39:29;;;;;;;0.73;0.67;;;3.70;99.90;;;;;;4937683;29;20313;-63
2023/12/31 04:41:55;;;;;;;1.67;1.57;;;3.60;99.90;;;;;;4937386;29;20414;-63
2023/12/31 04:44:21;;;;;;;2.37;0.77;;;3.60;99.90;;;;;;4937640;29;20214;-63
2023/12/31 04:46:46;;;;;;;0.38;0.38;;;3.60;99.90;;;;;;4937384;29;20233;-63
2023/12/31 04:49:16;;;;;;;0.80;0.80;;;3.60;99.90;;;;;;4937787;29;20183;-63
2023/12/31 04:51:41;;;;;;;0.93;0.93;;;3.60;99.90;;;;;;4937335;29;20265;-63
2023/12/31 04:54:07;;;;;;;0.90;0.63;;;3.70;99.90;;;;;;4937533;29;20704;-63
2023/12/31 04:56:33;;;;;;;0.77;0.60;;;3.70;99.90;;;;;;4937373;29;20201;-62
2023/12/31 04:59:00;;;;;;;1.27;1.17;;;3.70;99.90;;;;;;4937470;29;20263;-63
2023/12/31 05:01:31;;;;;;;0.50;0.50;;;3.70;99.90;;;;;;4937031;29;20453;-63
2023/12/31 05:03:58;;;;;;;2.17;0.95;;;3.60;99.90;;;;;;4937518;29;20576;-63
2023/12/31 05:06:24;;;;;;;0.35;0.35;;;3.50;99.90;;;;;;4937440;29;20217;-62
2023/12/31 05:08:50;;;;;;;0.50;0.50;;;3.40;99.90;;;;;;4937235;29;20682;-63
2023/12/31 05:11:15;;;;;;;9.53;1.53;;;3.40;99.90;;;;;;4936961;29;20225;-62
2023/12/31 05:13:42;;;;;;;1.70;0.73;;;3.30;99.90;;;;;;4937091;29;20178;-62
2023/12/31 05:16:09;;;;;;;0.45;0.45;;;3.40;99.90;;;;;;4937061;29;20465;-63
2023/12/31 05:18:35;;;;;;;0.60;0.60;;;3.30;99.90;;;;;;4937162;29;20686;-62
2023/12/31 05:21:01;;;;;;;1.00;1.00;;;3.40;99.90;;;;;;4936706;29;20186;-62
2023/12/31 05:23:27;;;;;;;0.40;0.40;;;3.40;99.90;;;;;;4936968;29;20181;-63
2023/12/31 05:25:53;;;;;;;0.50;0.50;;;3.50;99.90;;;;;;4936774;29;20253;-63
2023/12/31 05:28:19;;;;;;;0.57;0.57;;;3.50;99.90;;;;;;4936845;29;20209;-62
2023/12/31 05:30:44;;;;;;;1.23;1.23;;;3.50;99.90;;;;;;4936574;29;20414;-63
2023/12/31 05:33:11;;;;;;;1.90;0.50;;;3.50;99.90;;;;;;4937013;29;20178;-62
2023/12/31 05:35:36;;;;;;;3.38;1.02;;;3.60;99.90;;;;;;4936698;29;20194;-62
2023/12/31 05:38:02;;;;;;;0.60;0.60;;;3.70;99.90;;;;;;4936805;29;20194;-62
2023/12/31 05:40:28;;;;;;;0.70;0.70;;;3.70;99.90;;;;;;4936421;29;20426;-63
2023/12/31 05:42:54;;;;;;;0.60;0.60;;;3.70;99.90;;;;;;4936564;29;20185;-62
2023/12/31 05:45:19;;;;;;;0.60;0.60;;;3.70;99.90;;;;;;4936480;29;20179;-62
2023/12/31 05:47:46;;;;;;;0.77;0.60;;;3.70;99.90;;;;;;4936082;29;20416;-63
2023/12/31 05:50:13;;;;;;;0.57;0.57;;;3.80;99.90;;;;;;4936297;29;20198;-63
2023/12/31 05:52:38;;;;;;;0.82;0.82;;;3.80;99.90;;;;;;4936376;29;20682;-62
2023/12/31 05:55:04;;;;;;;0.53;0.53;;;3.80;99.90;;;;;;4936485;29;20256;-63
2023/12/31 05:57:30;;;;;;;0.80;0.80;;;3.80;99.90;;;;;;4936045;29;20298;-63
2023/12/31 05:59:55;;;;;;;0.60;0.40;;;3.80;99.90;;;;;;4936203;29;20281;-63
2023/12/31 06:02:22;;;;;;;1.00;1.00;;;3.80;99.90;;;;;;4936174;29;20229;-63
2023/12/31 06:04:47;;;;;;;2.13;0.82;;;3.80;99.90;;;;;;4936202;29;20182;-62
2023/12/31 06:07:13;;;;;;;0.63;0.63;;;3.90;99.90;;;;;;4936147;29;20214;-63
2023/12/31 06:09:38;;;;;;;0.30;0.30;;;3.90;99.90;;;;;;4936475;29;20236;-63
2023/12/31 06:12:04;;;;;;;0.40;0.40;;;3.90;99.90;;;;;;4935876;29;20174;-62
2023/12/31 06:14:30;;;;;;;0.70;0.70;;;3.90;99.90;;;;;;4936334;29;20178;-62
2023/12/31 06:16:56;;;;;;;0.43;0.43;;;3.90;99.90;;;;;;4935933;29;20445;-63
2023/12/31 06:19:21;;;;;;;0.60;0.60;;;3.80;99.90;;;;;;4935928;29;20425;-63
2023/12/31 06:21:47;;;;;;;0.57;0.57;;;3.80;99.90;;;;;;4935718;29;20190;-62
2023/12/31 06:24:13;;;;;;;0.50;0.50;;;3.80;99.90;;;;;;4935819;29;20208;-62
2023/12/31 06:26:38;;;;;;;0.50;0.50;;;3.90;99.90;;;;;;4936053;29;20210;-63
2023/12/31 06:29:04;;;;;;;0.40;0.40;;;4.00;99.90;;;;;;4935749;29;20178;-62
2023/12/31 06:31:29;;;;;;;0.50;0.50;;;4.00;99.90;;;;;;4935596;29;20209;-62
2023/12/31 06:33:55;;;;;;;0.40;0.40;;;4.10;99.90;;;;;;4935709;29;20681;-62
2023/12/31 06:36:21;;;;;;;1.33;1.23;;;4.10;99.90;;;;;;4935659;29;20190;-63
2023/12/31 06:38:46;;;;;;;0.50;0.50;;;4.10;99.90;;;;;;4935549;29;20178;-62
2023/12/31 06:41:12;;;;;;;1.23;1.13;;;4.10;99.90;;;;;;4935241;29;20214;-62
2023/12/31 06:43:38;;;;;;;0.80;0.70;;;4.10;99.90;;;;;;4935772;29;20183;-63
2023/12/31 06:46:04;;;;;;;0.70;0.70;;;4.00;99.90;;;;;;4935464;29;20277;-63
2023/12/31 06:48:31;;;;;;;0.40;0.40;;;3.90;99.90;;;;;;4935412;29;20182;-63
2023/12/31 06:50:56;;;;;;;0.82;0.82;;;3.90;99.90;;;;;;4935065;29;20181;-63
2023/12/31 06:53:22;;;;;;;0.30;0.30;;;3.90;99.90;;;;;;4935598;29;20179;-62
2023/12/31 06:55:48;;;;;;;0.50;0.50;;;3.90;99.90;;;;;;4935253;29;20196;-63
2023/12/31 06:58:14;;;;;;;0.83;0.60;;;3.80;99.90;;;;;;4935223;29;20265;-63
2023/12/31 07:00:40;;;;;;;0.73;0.73;;;3.80;99.90;;;;;;4934141;29;20182;-63
2023/12/31 07:03:06;;;;;;;0.40;0.40;;;3.80;99.90;;;;;;4935307;29;20181;-63
2023/12/31 07:05:32;;;;;;;4.82;2.50;;;3.80;99.90;;;;;;4935042;29;20206;-63
2023/12/31 07:07:57;;;;;;;0.50;0.50;;;3.80;99.90;;;;;;4935098;29;20210;-63
2023/12/31 07:10:23;;;;;;;0.60;0.60;;;3.70;99.90;;;;;;4935253;29;20170;-63
2023/12/31 07:12:49;;;;;;;0.63;0.63;;;3.70;99.90;;;;;;4935123;29;20657;-62
2023/12/31 07:15:16;;;;;;;3.05;2.85;;;3.60;99.90;;;;;;4935059;29;20417;-62
2023/12/31 07:17:41;;;;;;;0.55;0.55;;;3.60;99.90;;;;;;4935145;29;20539;-63
2023/12/31 07:20:08;;;;;;;0.40;0.40;;;3.50;99.90;;;;;;4934771;29;20292;-63
2023/12/31 07:22:34;;;;;;;0.40;0.40;;;3.40;99.90;;;;;;4934691;29;20398;-62
2023/12/31 07:25:02;;;;;;;0.70;0.70;;;3.40;99.90;;;;;;4934838;29;20527;-63
2023/12/31 07:27:29;;;;;;;0.60;0.60;;;3.40;99.90;;;;;;4934771;29;20213;-62
2023/12/31 07:29:54;;;;;;;0.40;0.40;;;3.40;99.90;;;;;;4934684;29;20181;-62
2023/12/31 07:32:20;;;;;;;0.50;0.50;;;3.30;99.90;;;;;;4934679;29;20715;-63
2023/12/31 07:34:46;;;;;;;1.00;0.60;;;3.40;99.90;;;;;;4934706;29;20180;-62
2023/12/31 07:37:11;;;;;;;0.60;0.50;;;3.40;99.90;;;;;;4934617;29;20289;-62
2023/12/31 07:39:41;;;;;;;0.40;0.40;;;3.50;99.90;;;;;;4934473;29;20205;-63
2023/12/31 07:42:06;;;;;;;0.70;0.70;;;3.40;99.90;;;;;;4934493;29;20185;-63
2023/12/31 07:44:32;;;;;;;0.50;0.50;;;3.40;99.90;;;;;;4934684;29;20182;-63
2023/12/31 07:46:58;;;;;;;0.40;0.40;;;3.40;99.90;;;;;;4934435;29;20264;-63
2023/12/31 07:49:24;;;;;;;0.40;0.40;;;3.60;99.90;;;;;;4934477;29;20912;-63
2023/12/31 07:51:50;;;;;;;0.40;0.40;;;3.50;99.90;;;;;;4934171;29;20237;-63
2023/12/31 07:54:16;;;;;;;0.70;0.70;;;3.60;99.90;;;;;;4934434;29;20173;-63
2023/12/31 07:56:42;;;;;;;0.40;0.40;;;3.60;99.90;;;;;;4934572;29;20213;-63
2023/12/31 07:59:08;;;;;;;0.90;0.50;;;3.70;99.90;;;;;;4934661;29;20728;-63
2023/12/31 08:01:34;;;;;;;0.47;0.47;;;3.80;99.90;;;;;;4934345;29;20558;-63
2023/12/31 08:03:59;;;;;;;0.70;0.70;;;3.80;99.90;;;;;;4934390;29;20178;-63
2023/12/31 08:06:26;;;;;;;2.33;1.07;;;3.90;99.90;;;;;;4934212;29;20449;-63
2023/12/31 08:08:52;;;;;;;0.68;0.50;;;4.00;99.90;;;;;;4934242;29;20265;-63
2023/12/31 08:11:20;;;;;;;0.60;0.60;;;4.00;99.90;;;;;;4935985;29;20249;-62
2023/12/31 08:13:46;;;;;;;1.00;0.98;;;4.10;99.90;;;;;;4938371;29;20796;-63
2023/12/31 08:16:11;;;;;;;0.50;0.50;;;4.20;99.90;;;;;;4938481;29;20189;-63
2023/12/31 08:18:38;;;;;;;0.50;0.43;;;4.20;99.90;;;;;;4938190;29;20556;-63
2023/12/31 08:21:04;;;;;;;0.50;0.50;;;4.40;99.90;;;;;;4937697;29;20233;-63
2023/12/31 08:23:29;;;;;;;4.17;2.53;;;4.40;99.90;;;;;;4937919;29;20198;-63
2023/12/31 08:25:56;;;;;;;0.60;0.60;;;4.50;99.90;;;;;;4937930;29;20209;-63
2023/12/31 08:28:22;;;;;;;0.50;0.50;;;4.60;99.90;;;;;;4938012;29;20602;-63
2023/12/31 08:30:48;;;;;;;0.40;0.40;;;4.70;99.90;;;;;;4937712;29;20179;-63
2023/12/31 08:33:14;;;;;;;1.00;0.50;;;4.80;99.90;;;;;;4938006;29;20185;-63
2023/12/31 08:35:41;;;;;;;0.40;0.40;;;5.00;99.90;;;;;;4937756;29;20289;-63
2023/12/31 08:38:07;;;;;;;2.05;0.60;;;5.10;99.90;;;;;;4937791;29;20546;-62
2023/12/31 08:40:33;;;;;;;0.87;0.83;;;5.10;99.90;;;;;;4937486;29;20184;-63
2023/12/31 08:42:58;;;;;;;1.63;1.53;;;5.10;99.90;;;;;;4937896;29;20722;-62
2023/12/31 08:45:24;;;;;;;0.40;0.40;;;5.30;99.90;;;;;;4937751;29;20318;-63
2023/12/31 08:47:49;;;;;;;0.57;0.57;;;5.30;99.90;;;;;;4937666;29;20542;-63
2023/12/31 08:50:15;;;;;;;1.60;0.50;;;5.40;99.90;;;;;;4937375;29;20646;-62
2023/12/31 08:52:46;;;;;;;2.50;0.63;;;5.50;99.90;;;;;;4937912;29;20186;-63
2023/12/31 08:55:12;;;;;;;0.77;0.77;;;5.70;99.90;;;;;;4937506;29;20260;-63
2023/12/31 08:57:44;;;;;;;0.93;0.93;;;5.70;99.90;;;;;;4937300;29;20731;-63
2023/12/31 09:00:10;;;;;;;1.25;0.93;;;5.80;99.90;;;;;;4937285;29;20186;-62
2023/12/31 09:02:36;;;;;;;0.60;0.60;;;6.00;99.90;;;;;;4937263;29;20242;-63
2023/12/31 09:05:02;;;;;;;1.67;1.27;;;6.00;99.90;;;;;;4937219;29;20184;-63
2023/12/31 09:07:27;;;;;;;0.80;0.80;;;6.20;99.90;;;;;;4937376;29;20312;-63
2023/12/31 09:09:53;;;;;;;0.60;0.53;;;6.30;99.90;;;;;;4937294;29;20196;-63
2023/12/31 09:12:19;;;;;;;1.40;1.40;;;6.40;99.90;;;;;;4937240;29;20172;-63
2023/12/31 09:14:45;;;;;;;1.80;1.30;;;6.50;99.90;;;;;;4937280;29;20180;-63
2023/12/31 09:17:11;;;;;;;1.87;1.77;;;6.70;99.90;;;;;;4937016;29;20440;-63
2023/12/31 09:19:38;;;;;;;3.70;1.30;;;6.80;99.90;;;;;;4936747;29;20187;-64
2023/12/31 09:22:04;;;;;;;0.82;0.82;;;6.90;99.90;;;;;;4936106;29;20174;-63
2023/12/31 09:24:31;;;;;;;1.47;1.47;;;7.10;99.90;;;;;;4936988;29;20331;-63
2023/12/31 09:26:57;;;;;;;2.70;1.40;;;7.10;99.90;;;;;;4936787;29;20262;-63
2023/12/31 09:29:23;;;;;;;0.85;0.85;;;7.20;99.90;;;;;;4936786;29;20184;-63
2023/12/31 09:31:49;;;;;;;1.40;1.30;;;7.30;99.90;;;;;;4936642;29;20185;-63
2023/12/31 09:34:15;;;;;;;0.50;0.50;;;7.30;99.90;;;;;;4936650;29;20193;-63
2023/12/31 09:36:40;;;;;;;0.80;0.60;;;7.40;99.90;;;;;;4936735;29;20578;-63
2023/12/31 09:39:06;;;;;;;3.97;1.43;;;7.60;99.90;;;;;;4936750;29;20182;-63
2023/12/31 09:41:33;;;;;;;0.98;0.90;;;7.60;99.90;;;;;;4936533;29;20178;-63
2023/12/31 09:44:01;;;;;;;1.30;1.13;;;7.50;99.70;;;;;;4936648;29;20193;-64
2023/12/31 09:46:31;;;;;;;1.98;1.90;;;7.60;99.90;;;;;;4936441;29;20260;-63
2023/12/31 09:48:59;;;;;;;3.00;1.42;;;7.60;99.50;;;;;;4936385;29;20201;-63
2023/12/31 09:51:25;;;;;;;1.13;1.13;;;7.70;99.20;;;;;;4936441;29;20556;-63
2023/12/31 09:53:54;;;;;;;1.02;1.02;;;7.70;99.30;;;;;;4936498;29;20182;-63
2023/12/31 09:56:22;;;;;;;0.95;0.95;;;7.80;98.70;;;;;;4936484;29;20573;-63
2023/12/31 09:58:52;;;;;;;0.70;0.70;;;7.80;98.50;;;;;;4936382;29;20620;-63
2023/12/31 10:01:18;;;;;;;0.80;0.80;;;7.80;98.10;;;;;;4935954;29;20564;-63
2023/12/31 10:03:46;;;;;;;1.63;1.53;;;7.90;98.20;;;;;;4936194;29;20175;-62
2023/12/31 10:06:12;;;;;;;1.98;1.88;;;8.00;98.10;;;;;;4936012;29;20719;-62
2023/12/31 10:08:39;;;;;;;2.28;2.17;;;8.10;98.00;;;;;;4936323;29;20248;-63
2023/12/31 10:11:06;;;;;;;0.95;0.95;;;8.10;97.30;;;;;;4935873;29;20667;-63
2023/12/31 10:13:31;;;;;;;1.13;1.13;;;8.20;97.50;;;;;;4936111;29;20175;-62
2023/12/31 10:15:57;;;;;;;0.93;0.93;;;8.20;97.20;;;;;;4935843;29;20198;-62
2023/12/31 10:18:26;;;;;;;1.37;1.33;;;8.30;97.00;;;;;;4935966;29;20667;-63
2023/12/31 10:20:52;;;;;;;1.10;1.00;;;8.40;96.80;;;;;;4935706;29;20433;-63
2023/12/31 10:23:18;;;;;;;1.45;1.35;;;8.50;96.70;;;;;;4935925;29;20182;-62
2023/12/31 10:25:44;;;;;;;1.07;1.07;;;8.60;96.80;;;;;;4935815;29;20217;-62
2023/12/31 10:28:10;;;;;;;2.30;2.20;;;8.60;96.20;;;;;;4935878;29;20173;-63
2023/12/31 10:30:41;;;;;;;0.97;0.83;;;8.60;96.20;;;;;;4935494;29;20612;-62
2023/12/31 10:33:13;;;;;;;0.90;0.80;;;8.70;96.50;;;;;;4935680;29;20175;-63
2023/12/31 10:35:39;;;;;;;0.90;0.90;;;8.70;96.00;;;;;;4935566;29;20198;-62
2023/12/31 10:38:05;;;;;;;1.63;1.53;;;8.60;95.90;;;;;;4935738;29;20264;-63
2023/12/31 10:40:35;;;;;;;2.15;1.40;;;8.60;95.80;;;;;;4935710;29;20649;-63
2023/12/31 10:43:06;;;;;;;1.10;0.90;;;8.70;95.70;;;;;;4935470;29;20665;-63
2023/12/31 10:45:33;;;;;;;1.30;1.20;;;8.60;95.70;;;;;;4935397;29;20177;-63
2023/12/31 10:48:01;;;;;;;1.50;1.40;;;8.60;95.80;;;;;;4935467;29;20171;-63
2023/12/31 10:50:28;;;;;;;1.45;0.55;;;8.60;95.90;;;;;;4935152;29;20608;-63
2023/12/31 10:52:57;;;;;;;1.08;0.98;;;8.70;96.10;;;;;;4935380;29;20594;-63
2023/12/31 10:55:23;;;;;;;2.00;1.38;;;8.70;96.30;;;;;;4935154;29;20560;-63
2023/12/31 10:57:51;;;;;;;0.52;0.52;;;8.60;97.10;;;;;;4935308;29;20602;-62
2023/12/31 11:00:18;;;;;;;0.40;0.40;;;8.30;98.10;;;;;;4935180;29;20267;-63
2023/12/31 11:02:45;;;;;;;1.40;0.77;;;8.00;98.50;;;;;;4935268;29;20182;-62
2023/12/31 11:05:12;;;;;;;2.63;1.98;;;7.80;99.00;;;;;;4935318;29;20178;-63
2023/12/31 11:07:39;;;;;;;0.40;0.40;;;7.40;99.90;;;;;;4935026;29;20279;-63
2023/12/31 11:10:06;;;;;;;0.50;0.50;;;7.20;99.70;;;;;;4934818;29;20299;-62
2023/12/31 11:12:33;;;;;;;0.40;0.40;;;7.00;99.90;;;;;;4934922;29;20549;-62
2023/12/31 11:15:06;;;;;;;0.30;0.30;;;6.90;99.90;;;;;;4935115;29;20168;-62
2023/12/31 11:17:58;;;;;;;0.50;0.50;;;6.90;99.90;;;;;;4935102;29;20201;-63
2023/12/31 11:20:45;;;;;;;0.30;0.30;;;6.80;99.90;;;;;;4934611;29;20181;-63
2023/12/31 11:23:25;;;;;;;0.40;0.40;;;6.70;99.90;;;;;;4935316;29;20574;-62
2023/12/31 11:25:51;;;;;;;0.30;0.30;;;6.60;99.90;;;;;;4934894;29;20205;-62
2023/12/31 11:28:17;;;;;;;0.40;0.40;;;6.50;99.90;;;;;;4934822;29;20178;-63
2023/12/31 11:30:54;;;;;;;0.38;0.38;;;6.20;99.90;;;;;;4934479;29;20180;-63
2023/12/31 11:33:33;;;;;;;0.30;0.30;;;6.20;99.90;;;;;;4934983;29;20186;-62
2023/12/31 11:36:10;;;;;;;0.60;0.50;;;5.80;99.90;;;;;;4934775;29;20683;-63
2023/12/31 11:39:02;;;;;;;0.50;0.50;;;5.70;99.90;;;;;;4934789;29;20306;-62
2023/12/31 11:41:45;;;;;;;0.30;0.30;;;5.80;99.90;;;;;;4934376;29;20238;-62
2023/12/31 11:44:34;;;;;;;0.80;0.40;;;5.90;99.90;;;;;;4934865;29;20598;-63
2023/12/31 11:46:59;;;;;;;0.30;0.30;;;5.90;99.90;;;;;;4934125;29;20302;-63
2023/12/31 11:49:25;;;;;;;0.40;0.40;;;5.90;99.90;;;;;;4934549;29;20251;-62
2023/12/31 11:51:56;;;;;;;0.30;0.30;;;5.90;99.90;;;;;;4934185;29;20173;-62
2023/12/31 11:54:24;;;;;;;13.25;7.10;;;5.90;99.90;;;;;;4934779;29;20566;-63
2023/12/31 11:56:51;;;;;;;2.22;2.03;;;5.80;99.90;;;;;;4934463;29;20215;-62
2023/12/31 11:59:17;;;;;;;1.48;1.20;;;5.80;99.90;;;;;;4934512;29;20186;-62
2023/12/31 12:01:44;;;;;;;0.30;0.30;;;5.80;99.90;;;;;;4934252;29;20233;-62
2023/12/31 12:04:11;;;;;;;0.40;0.40;;;5.80;99.90;;;;;;4934399;29;20189;-63
2023/12/31 12:06:37;;;;;;;0.40;0.40;;;5.70;99.90;;;;;;4934510;29;20379;-63
2023/12/31 12:09:03;;;;;;;1.60;0.70;;;5.60;99.90;;;;;;4934442;29;20285;-62
2023/12/31 12:11:28;;;;;;;0.77;0.70;;;5.60;99.90;;;;;;4934275;29;20181;-62
2023/12/31 12:13:54;;;;;;;0.40;0.40;;;5.60;99.90;;;;;;4934513;29;20567;-62
2023/12/31 12:16:20;;;;;;;0.87;0.87;;;5.50;99.90;;;;;;4934325;29;20691;-63
2023/12/31 12:18:46;;;;;;;0.30;0.30;;;5.50;99.90;;;;;;4934453;29;20413;-62
2023/12/31 12:21:11;;;;;;;2.10;0.87;;;5.50;99.90;;;;;;4934002;29;20217;-63
2023/12/31 12:23:37;;;;;;;0.70;0.70;;;5.50;99.90;;;;;;4934342;29;20174;-62
2023/12/31 12:26:03;;;;;;;0.60;0.60;;;5.50;99.90;;;;;;4934175;29;20198;-62
2023/12/31 12:28:30;;;;;;;1.43;0.60;;;5.50;99.90;;;;;;4934335;29;20578;-62
2023/12/31 12:30:57;;;;;;;0.82;0.80;;;5.50;99.90;;;;;;4933854;29;20886;-62
2023/12/31 12:33:23;;;;;;;0.30;0.30;;;5.60;99.90;;;;;;4934094;29;20187;-62
2023/12/31 12:35:49;;;;;;;0.30;0.30;;;5.50;99.90;;;;;;4934330;29;20202;-62
2023/12/31 12:38:16;;;;;;;0.30;0.30;;;5.30;99.90;;;;;;4934272;29;20210;-62
2023/12/31 12:40:42;;;;;;;1.02;1.02;;;5.20;99.90;;;;;;4933897;29;20179;-62
2023/12/31 12:43:07;;;;;;;0.90;0.90;;;5.20;99.90;;;;;;4934219;29;20205;-62
2023/12/31 12:45:33;;;;;;;0.73;0.53;;;5.30;99.90;;;;;;4933955;29;20178;-62
2023/12/31 12:48:01;;;;;;;0.30;0.30;;;5.20;99.90;;;;;;4934022;29;20172;-63
2023/12/31 12:50:29;;;;;;;0.30;0.30;;;5.10;99.90;;;;;;4933987;29;20285;-63
2023/12/31 12:52:55;;;;;;;0.40;0.40;;;5.00;99.90;;;;;;4934195;29;20219;-63
2023/12/31 12:55:21;;;;;;;0.85;0.75;;;5.00;99.90;;;;;;4933969;29;20169;-63